Portada
METAR-TAF:

METAR-TAF

Aeroports :

Lo Mont, França

latitud: 43-55N, longitud: 000-30W, altitud: 62 m

Observació

L'informe es va fer fa 40 minuts, a les 22:30 UTC
Vent 3 kt del Oest/Nord-Oest
Temperatura 18°C
Humitat 73%
Pressió 1017 hPa
Visibilitat 10 km o més
sense núvols per sota de 1500 mi sense presència de cumulonimbus.

METAR: LFBM 152230Z AUTO 29003KT CAVOK 18/13 Q1017 NOSIG

Hora: 01:10 (23:10 UTC)

Pronòstic

L'informe es va fer fa 3 hores i 10 minuts, a les 20:00 UTC
Pronòstic vàlid del 15 a les 21 UTC al 16 a les 21 UTC
Vent 5 kt del Nord/Nord-Oest
Visibilitat 10 km o més
sense núvols per sota de 1500 mi sense presència de cumulonimbus.

TAF: LFBM 152000Z 1521/1621 33005KT CAVOK

Observacions i pronòstics meteorològics de més de 4000 aeroports (METAR i TAF).

Les estacions disponibles són els punts grocs i vermells al mapa.

Posi el ratolí al punt desitjat per veure el nom de l'estació.

Feu clic per veure les observacions i els pronòstics meteorològics.

Per canviar el mapa: feu clic els botons verds amb una creu de color negre per apropar; al botó verd amb un guió per allunyar la imatge; o en les fletxes verdes per a mapes adjacents.


METAR-TAF: